Stanford, KY (40484)

1:41 PM EDT on September 03, 2015 (GMT -0400)
Powell | | Change Station
CLOSE
Current Station
Airport
Location: Danville,
Elevation: 1024 ft
Nearby Weather Stations

Elev 1024 ft 37.58 °N, 84.77 °W | Updated 6 minutes ago

Clear
Clear
88 °F
Feels Like 90 °F
N
6
Wind Variable Wind from North

Today
High -- | Low -- °F
--% Chance of Precip.
Yesterday
High -- | Low -- °F
Precip. -- in
7:10 AM 8:05 PM
Waning Gibbous, 68% visible
Pressure 30.05 in
Visibility 10.0 miles
Clouds Clear
Heat Index 90 °F
Dew Point 66 °F
Humidity 49%
Rainfall 0.00 in
Snow Depth Not available.
UV 10 out of 12
Pollen 10.30 out of 12
Air Quality Not available.
Flu Activity Not available.
METAR KDVK 031735Z AUTO 36005KT 10SM CLR 31/19 A3005 RMK AO2
Pressure 30.05 in
Visibility 10.0 miles
Clouds Clear
Heat Index 90 °F
Dew Point 66 °F
Humidity 49%
Rainfall 0.00 in
Snow Depth Not available.
UV 10 out of 12
Pollen 10.30 out of 12
Air Quality Not available.
Flu Activity Not available.
METAR KDVK 031735Z AUTO 36005KT 10SM CLR 31/19 A3005 RMK AO2

10-Day Weather Forecast

×

Almanac

Astronomy

Sep. 03, 2015 Rise Set
Actual Time
Civil Twilight
Nautical Twilight
Astronomical Twilight
Moon
Length of Visible Light
Length of Day
Tomorrow will be .
, % of the Moon is Illuminated

Today's Extremes

State Highs State Lows

Community

WunderPhotos

Upload Photos

1,851,993 photos uploaded!

WunderBlogs® & News

Nearby

Air Quality

  Air Quality AQ Index Pollutant
Not available.

Snow Depth

Station Depth Elevation

Earthquake Activity

City Distance Mag. Time & Date
Minimum magnitude displayed is 2.5.

Coastal Water Temperatures

Place Temperature

Stations

Nearby Weather Stations

Station Location Temp. Windchill Dew Point Humidity Wind Precip. Elev Updated Type